MEM weather

Memphis International Airport
Memphis, Tennessee, United States

Public forecast

Using degrees Fahrenheit for public forecast. Weather courtesy of forecast.io.

Current aviation weather report (METAR) for Memphis International Airport

Retrieved 2019/10/16 20:54 UTC (29 minutes ago):

KMEM 162054Z 34008KT 10SM FEW250 17/06 A3008 RMK AO2 SLP184 T01670056 55004

Aviation forecast (TAF) for Memphis International Airport

Retrieved 2019/10/16 18:24 UTC (3 hours ago):

TAF KMEM 161721Z 1618/1724 36011KT P6SM FEW250 FM170200 34004KT P6SM SKC FM171400 05004KT P6SM SKC FM171800 36003KT P6SM SKC